sensor_id;sensor_type;location;lat;lon;timestamp;P1;durP1;ratioP1;P2;durP2;ratioP2
76298;SDS011;65236;42.332;23.550;2022-12-22T00:00:14;305.95;;;289.58;;
76298;SDS011;65236;42.332;23.550;2022-12-22T00:02:58;291.13;;;276.03;;
76298;SDS011;65236;42.332;23.550;2022-12-22T00:05:41;261.48;;;247.68;;
76298;SDS011;65236;42.332;23.550;2022-12-22T00:08:25;274.27;;;259.95;;
76298;SDS011;65236;42.332;23.550;2022-12-22T00:11:09;282.77;;;268.05;;
76298;SDS011;65236;42.332;23.550;2022-12-22T00:13:54;284.35;;;268.80;;
76298;SDS011;65236;42.332;23.550;2022-12-22T00:16:39;298.43;;;280.60;;
76298;SDS011;65236;42.332;23.550;2022-12-22T00:19:23;305.80;;;288.75;;
76298;SDS011;65236;42.332;23.550;2022-12-22T00:24:58;352.38;;;333.63;;
76298;SDS011;65236;42.332;23.550;2022-12-22T00:27:42;337.25;;;319.27;;
76298;SDS011;65236;42.332;23.550;2022-12-22T00:30:25;289.20;;;274.17;;
76298;SDS011;65236;42.332;23.550;2022-12-22T00:33:10;286.20;;;269.95;;
76298;SDS011;65236;42.332;23.550;2022-12-22T00:35:56;287.30;;;270.10;;
76298;SDS011;65236;42.332;23.550;2022-12-22T00:38:40;246.98;;;233.57;;
76298;SDS011;65236;42.332;23.550;2022-12-22T00:41:24;256.58;;;243.25;;
76298;SDS011;65236;42.332;23.550;2022-12-22T00:44:08;255.37;;;242.20;;
76298;SDS011;65236;42.332;23.550;2022-12-22T00:46:52;267.02;;;253.43;;
76298;SDS011;65236;42.332;23.550;2022-12-22T00:49:36;257.15;;;243.75;;
76298;SDS011;65236;42.332;23.550;2022-12-22T00:52:23;265.67;;;250.35;;
76298;SDS011;65236;42.332;23.550;2022-12-22T00:55:14;269.08;;;252.88;;
76298;SDS011;65236;42.332;23.550;2022-12-22T00:58:00;271.10;;;257.20;;
76298;SDS011;65236;42.332;23.550;2022-12-22T01:00:46;263.05;;;249.50;;
76298;SDS011;65236;42.332;23.550;2022-12-22T01:03:29;257.45;;;244.10;;
76298;SDS011;65236;42.332;23.550;2022-12-22T01:06:13;257.67;;;244.13;;
76298;SDS011;65236;42.332;23.550;2022-12-22T01:08:57;260.38;;;245.63;;
76298;SDS011;65236;42.332;23.550;2022-12-22T01:11:41;269.07;;;252.50;;
76298;SDS011;65236;42.332;23.550;2022-12-22T01:14:25;246.18;;;232.18;;
76298;SDS011;65236;42.332;23.550;2022-12-22T01:17:09;251.27;;;238.07;;
76298;SDS011;65236;42.332;23.550;2022-12-22T01:19:53;260.52;;;247.02;;
76298;SDS011;65236;42.332;23.550;2022-12-22T01:22:37;261.20;;;247.27;;
76298;SDS011;65236;42.332;23.550;2022-12-22T01:25:22;263.37;;;249.83;;
76298;SDS011;65236;42.332;23.550;2022-12-22T01:28:08;269.70;;;255.00;;
76298;SDS011;65236;42.332;23.550;2022-12-22T01:30:57;248.27;;;233.48;;
76298;SDS011;65236;42.332;23.550;2022-12-22T01:33:41;237.35;;;225.15;;
76298;SDS011;65236;42.332;23.550;2022-12-22T01:36:25;266.02;;;252.30;;
76298;SDS011;65236;42.332;23.550;2022-12-22T01:39:08;268.13;;;254.50;;
76298;SDS011;65236;42.332;23.550;2022-12-22T01:41:52;268.70;;;254.95;;
76298;SDS011;65236;42.332;23.550;2022-12-22T01:44:36;270.92;;;257.00;;
76298;SDS011;65236;42.332;23.550;2022-12-22T01:50:22;253.90;;;239.68;;
76298;SDS011;65236;42.332;23.550;2022-12-22T01:53:17;260.23;;;247.23;;
76298;SDS011;65236;42.332;23.550;2022-12-22T01:56:03;262.05;;;248.68;;
76298;SDS011;65236;42.332;23.550;2022-12-22T01:58:50;297.50;;;281.17;;
76298;SDS011;65236;42.332;23.550;2022-12-22T02:01:36;254.10;;;239.48;;
76298;SDS011;65236;42.332;23.550;2022-12-22T02:04:23;242.85;;;230.50;;
76298;SDS011;65236;42.332;23.550;2022-12-22T02:07:53;270.93;;;257.33;;
76298;SDS011;65236;42.332;23.550;2022-12-22T02:22:44;310.60;;;295.03;;
76298;SDS011;65236;42.332;23.550;2022-12-22T02:25:54;275.48;;;260.65;;
76298;SDS011;65236;42.332;23.550;2022-12-22T02:28:56;294.95;;;279.83;;
76298;SDS011;65236;42.332;23.550;2022-12-22T02:31:40;323.02;;;305.98;;
76298;SDS011;65236;42.332;23.550;2022-12-22T02:34:24;271.83;;;258.02;;
76298;SDS011;65236;42.332;23.550;2022-12-22T02:37:16;317.87;;;300.00;;
76298;SDS011;65236;42.332;23.550;2022-12-22T02:40:22;306.30;;;289.95;;
76298;SDS011;65236;42.332;23.550;2022-12-22T02:43:40;284.45;;;270.05;;
76298;SDS011;65236;42.332;23.550;2022-12-22T02:46:20;292.52;;;275.65;;
76298;SDS011;65236;42.332;23.550;2022-12-22T02:49:15;254.52;;;241.57;;
76298;SDS011;65236;42.332;23.550;2022-12-22T02:52:18;229.13;;;217.37;;
76298;SDS011;65236;42.332;23.550;2022-12-22T02:55:06;300.75;;;283.10;;
76298;SDS011;65236;42.332;23.550;2022-12-22T02:57:51;289.45;;;272.98;;
76298;SDS011;65236;42.332;23.550;2022-12-22T03:00:36;259.73;;;246.43;;
76298;SDS011;65236;42.332;23.550;2022-12-22T03:03:21;267.02;;;253.48;;
76298;SDS011;65236;42.332;23.550;2022-12-22T03:06:05;281.70;;;267.23;;
76298;SDS011;65236;42.332;23.550;2022-12-22T03:08:49;250.63;;;237.68;;
76298;SDS011;65236;42.332;23.550;2022-12-22T03:11:33;244.40;;;231.13;;
76298;SDS011;65236;42.332;23.550;2022-12-22T03:14:17;227.23;;;213.30;;
76298;SDS011;65236;42.332;23.550;2022-12-22T03:17:00;275.75;;;260.05;;
76298;SDS011;65236;42.332;23.550;2022-12-22T03:19:44;252.57;;;239.57;;
76298;SDS011;65236;42.332;23.550;2022-12-22T03:22:28;257.42;;;244.15;;
76298;SDS011;65236;42.332;23.550;2022-12-22T03:25:12;258.67;;;245.52;;
76298;SDS011;65236;42.332;23.550;2022-12-22T03:28:03;264.60;;;251.10;;
76298;SDS011;65236;42.332;23.550;2022-12-22T03:30:30;274.27;;;260.38;;
76298;SDS011;65236;42.332;23.550;2022-12-22T03:32:55;277.83;;;263.77;;
76298;SDS011;65236;42.332;23.550;2022-12-22T03:35:21;258.47;;;245.37;;
76298;SDS011;65236;42.332;23.550;2022-12-22T03:37:46;273.20;;;259.07;;
76298;SDS011;65236;42.332;23.550;2022-12-22T03:40:12;270.60;;;256.95;;
76298;SDS011;65236;42.332;23.550;2022-12-22T03:42:37;270.43;;;255.63;;
76298;SDS011;65236;42.332;23.550;2022-12-22T03:45:21;268.45;;;255.02;;
76298;SDS011;65236;42.332;23.550;2022-12-22T03:48:05;269.97;;;256.33;;
76298;SDS011;65236;42.332;23.550;2022-12-22T03:50:30;269.38;;;255.93;;
76298;SDS011;65236;42.332;23.550;2022-12-22T03:52:56;266.33;;;252.73;;
76298;SDS011;65236;42.332;23.550;2022-12-22T03:55:21;274.77;;;259.77;;
76298;SDS011;65236;42.332;23.550;2022-12-22T03:57:47;277.03;;;260.67;;
76298;SDS011;65236;42.332;23.550;2022-12-22T04:00:12;279.47;;;263.53;;
76298;SDS011;65236;42.332;23.550;2022-12-22T04:02:38;284.67;;;269.65;;
76298;SDS011;65236;42.332;23.550;2022-12-22T04:05:03;283.77;;;269.00;;
76298;SDS011;65236;42.332;23.550;2022-12-22T04:07:29;214.98;;;203.90;;
76298;SDS011;65236;42.332;23.550;2022-12-22T04:09:55;222.80;;;211.10;;
76298;SDS011;65236;42.332;23.550;2022-12-22T04:12:39;213.93;;;202.80;;
76298;SDS011;65236;42.332;23.550;2022-12-22T04:15:20;245.30;;;232.65;;
76298;SDS011;65236;42.332;23.550;2022-12-22T04:17:46;265.77;;;252.18;;
76298;SDS011;65236;42.332;23.550;2022-12-22T04:20:11;257.40;;;244.27;;
76298;SDS011;65236;42.332;23.550;2022-12-22T04:22:37;274.77;;;260.53;;
76298;SDS011;65236;42.332;23.550;2022-12-22T04:25:02;261.55;;;248.00;;
76298;SDS011;65236;42.332;23.550;2022-12-22T04:27:28;278.13;;;263.83;;
76298;SDS011;65236;42.332;23.550;2022-12-22T04:29:53;252.53;;;238.87;;
76298;SDS011;65236;42.332;23.550;2022-12-22T04:32:19;291.97;;;274.87;;
76298;SDS011;65236;42.332;23.550;2022-12-22T04:34:44;299.57;;;281.97;;
76298;SDS011;65236;42.332;23.550;2022-12-22T04:37:09;266.43;;;251.97;;
76298;SDS011;65236;42.332;23.550;2022-12-22T04:39:35;257.80;;;244.30;;
76298;SDS011;65236;42.332;23.550;2022-12-22T04:42:00;257.43;;;244.20;;
76298;SDS011;65236;42.332;23.550;2022-12-22T04:44:26;274.53;;;260.43;;
76298;SDS011;65236;42.332;23.550;2022-12-22T04:46:51;267.50;;;253.73;;
76298;SDS011;65236;42.332;23.550;2022-12-22T04:49:16;266.53;;;252.83;;
76298;SDS011;65236;42.332;23.550;2022-12-22T04:51:42;262.90;;;249.23;;
76298;SDS011;65236;42.332;23.550;2022-12-22T04:54:07;272.20;;;257.77;;
76298;SDS011;65236;42.332;23.550;2022-12-22T04:56:32;283.53;;;266.80;;
76298;SDS011;65236;42.332;23.550;2022-12-22T04:58:58;279.23;;;263.13;;
76298;SDS011;65236;42.332;23.550;2022-12-22T05:01:23;240.17;;;227.37;;
76298;SDS011;65236;42.332;23.550;2022-12-22T05:03:49;245.75;;;232.90;;
76298;SDS011;65236;42.332;23.550;2022-12-22T05:06:15;246.17;;;233.57;;
76298;SDS011;65236;42.332;23.550;2022-12-22T05:08:40;248.97;;;236.23;;
76298;SDS011;65236;42.332;23.550;2022-12-22T05:11:06;248.13;;;235.45;;
76298;SDS011;65236;42.332;23.550;2022-12-22T05:13:31;210.03;;;198.83;;
76298;SDS011;65236;42.332;23.550;2022-12-22T05:16:03;231.80;;;219.63;;
76298;SDS011;65236;42.332;23.550;2022-12-22T05:18:30;236.98;;;224.57;;
76298;SDS011;65236;42.332;23.550;2022-12-22T05:20:57;256.98;;;242.50;;
76298;SDS011;65236;42.332;23.550;2022-12-22T05:23:22;247.23;;;234.03;;
76298;SDS011;65236;42.332;23.550;2022-12-22T05:25:47;242.27;;;229.47;;
76298;SDS011;65236;42.332;23.550;2022-12-22T05:28:13;226.65;;;214.93;;
76298;SDS011;65236;42.332;23.550;2022-12-22T05:30:41;249.70;;;236.87;;
76298;SDS011;65236;42.332;23.550;2022-12-22T05:33:07;243.73;;;231.25;;
76298;SDS011;65236;42.332;23.550;2022-12-22T05:35:52;237.93;;;225.70;;
76298;SDS011;65236;42.332;23.550;2022-12-22T05:38:17;260.70;;;247.07;;
76298;SDS011;65236;42.332;23.550;2022-12-22T05:40:43;262.27;;;248.63;;
76298;SDS011;65236;42.332;23.550;2022-12-22T05:43:08;270.70;;;256.90;;
76298;SDS011;65236;42.332;23.550;2022-12-22T05:45:34;239.27;;;226.83;;
76298;SDS011;65236;42.332;23.550;2022-12-22T05:47:59;256.02;;;242.82;;
76298;SDS011;65236;42.332;23.550;2022-12-22T05:50:25;252.50;;;239.00;;
76298;SDS011;65236;42.332;23.550;2022-12-22T05:52:50;236.00;;;221.97;;
76298;SDS011;65236;42.332;23.550;2022-12-22T05:55:16;258.70;;;242.83;;
76298;SDS011;65236;42.332;23.550;2022-12-22T05:57:41;264.20;;;249.43;;
76298;SDS011;65236;42.332;23.550;2022-12-22T06:00:08;248.50;;;235.50;;
76298;SDS011;65236;42.332;23.550;2022-12-22T06:02:36;255.63;;;242.20;;
76298;SDS011;65236;42.332;23.550;2022-12-22T06:05:02;242.93;;;230.27;;
76298;SDS011;65236;42.332;23.550;2022-12-22T06:07:27;243.10;;;230.47;;
76298;SDS011;65236;42.332;23.550;2022-12-22T06:09:53;245.10;;;232.30;;
76298;SDS011;65236;42.332;23.550;2022-12-22T06:12:18;254.65;;;241.43;;
76298;SDS011;65236;42.332;23.550;2022-12-22T06:14:43;244.57;;;231.87;;
76298;SDS011;65236;42.332;23.550;2022-12-22T06:17:09;271.63;;;256.40;;
76298;SDS011;65236;42.332;23.550;2022-12-22T06:19:34;282.03;;;264.70;;
76298;SDS011;65236;42.332;23.550;2022-12-22T06:22:00;279.83;;;263.97;;
76298;SDS011;65236;42.332;23.550;2022-12-22T06:24:25;258.25;;;244.57;;
76298;SDS011;65236;42.332;23.550;2022-12-22T06:26:50;257.90;;;244.23;;
76298;SDS011;65236;42.332;23.550;2022-12-22T06:29:16;266.90;;;252.97;;
76298;SDS011;65236;42.332;23.550;2022-12-22T06:31:42;260.73;;;246.97;;
76298;SDS011;65236;42.332;23.550;2022-12-22T06:34:08;274.95;;;260.67;;
76298;SDS011;65236;42.332;23.550;2022-12-22T06:36:34;277.60;;;262.65;;
76298;SDS011;65236;42.332;23.550;2022-12-22T06:39:00;273.13;;;258.55;;
76298;SDS011;65236;42.332;23.550;2022-12-22T06:41:26;274.00;;;258.40;;
76298;SDS011;65236;42.332;23.550;2022-12-22T06:44:09;276.23;;;261.55;;
76298;SDS011;65236;42.332;23.550;2022-12-22T06:46:35;286.73;;;270.60;;
76298;SDS011;65236;42.332;23.550;2022-12-22T06:49:00;279.90;;;263.37;;
76298;SDS011;65236;42.332;23.550;2022-12-22T06:51:26;275.40;;;259.00;;
76298;SDS011;65236;42.332;23.550;2022-12-22T06:53:51;253.30;;;239.27;;
76298;SDS011;65236;42.332;23.550;2022-12-22T06:56:16;228.03;;;215.93;;
76298;SDS011;65236;42.332;23.550;2022-12-22T06:58:42;223.87;;;211.90;;
76298;SDS011;65236;42.332;23.550;2022-12-22T07:01:07;224.57;;;212.63;;
76298;SDS011;65236;42.332;23.550;2022-12-22T07:03:33;236.23;;;223.63;;
76298;SDS011;65236;42.332;23.550;2022-12-22T07:05:58;238.80;;;225.88;;
76298;SDS011;65236;42.332;23.550;2022-12-22T07:08:23;252.67;;;238.80;;
76298;SDS011;65236;42.332;23.550;2022-12-22T07:10:49;221.63;;;208.53;;
76298;SDS011;65236;42.332;23.550;2022-12-22T07:13:27;273.20;;;257.30;;
76298;SDS011;65236;42.332;23.550;2022-12-22T07:15:55;276.00;;;259.42;;
76298;SDS011;65236;42.332;23.550;2022-12-22T07:18:21;290.67;;;272.57;;
76298;SDS011;65236;42.332;23.550;2022-12-22T07:20:46;300.50;;;282.17;;
76298;SDS011;65236;42.332;23.550;2022-12-22T07:23:12;297.13;;;279.85;;
76298;SDS011;65236;42.332;23.550;2022-12-22T07:25:37;251.33;;;237.33;;
76298;SDS011;65236;42.332;23.550;2022-12-22T07:28:03;279.93;;;264.03;;
76298;SDS011;65236;42.332;23.550;2022-12-22T07:30:31;293.30;;;276.55;;
76298;SDS011;65236;42.332;23.550;2022-12-22T07:32:56;298.77;;;281.47;;
76298;SDS011;65236;42.332;23.550;2022-12-22T07:35:21;286.63;;;269.80;;
76298;SDS011;65236;42.332;23.550;2022-12-22T07:37:47;287.63;;;270.85;;
76298;SDS011;65236;42.332;23.550;2022-12-22T07:40:13;326.80;;;305.73;;
76298;SDS011;65236;42.332;23.550;2022-12-22T07:42:38;323.75;;;303.45;;
76298;SDS011;65236;42.332;23.550;2022-12-22T07:45:19;323.90;;;302.65;;
76298;SDS011;65236;42.332;23.550;2022-12-22T07:47:44;324.60;;;302.53;;
76298;SDS011;65236;42.332;23.550;2022-12-22T07:50:11;222.90;;;209.00;;
76298;SDS011;65236;42.332;23.550;2022-12-22T07:53:00;222.50;;;208.48;;
76298;SDS011;65236;42.332;23.550;2022-12-22T07:55:28;81.10;;;74.55;;
76298;SDS011;65236;42.332;23.550;2022-12-22T07:57:55;60.80;;;55.00;;
76298;SDS011;65236;42.332;23.550;2022-12-22T08:00:22;279.67;;;261.27;;
76298;SDS011;65236;42.332;23.550;2022-12-22T08:02:48;323.80;;;303.02;;
76298;SDS011;65236;42.332;23.550;2022-12-22T08:05:15;275.58;;;258.90;;
76298;SDS011;65236;42.332;23.550;2022-12-22T08:07:41;281.90;;;264.63;;
76298;SDS011;65236;42.332;23.550;2022-12-22T08:10:06;263.97;;;247.70;;
76298;SDS011;65236;42.332;23.550;2022-12-22T08:12:32;270.63;;;253.95;;
76298;SDS011;65236;42.332;23.550;2022-12-22T08:14:57;281.30;;;263.87;;
76298;SDS011;65236;42.332;23.550;2022-12-22T08:17:25;333.05;;;310.80;;
76298;SDS011;65236;42.332;23.550;2022-12-22T08:19:51;376.13;;;348.83;;
76298;SDS011;65236;42.332;23.550;2022-12-22T08:22:17;402.42;;;371.40;;
76298;SDS011;65236;42.332;23.550;2022-12-22T08:24:43;361.60;;;335.05;;
76298;SDS011;65236;42.332;23.550;2022-12-22T08:27:12;373.37;;;346.10;;
76298;SDS011;65236;42.332;23.550;2022-12-22T08:29:41;387.17;;;358.33;;
76298;SDS011;65236;42.332;23.550;2022-12-22T08:32:10;370.97;;;344.20;;
76298;SDS011;65236;42.332;23.550;2022-12-22T08:34:37;352.17;;;327.38;;
76298;SDS011;65236;42.332;23.550;2022-12-22T08:37:04;387.25;;;358.40;;
76298;SDS011;65236;42.332;23.550;2022-12-22T08:39:31;366.98;;;340.30;;
76298;SDS011;65236;42.332;23.550;2022-12-22T08:42:02;296.58;;;277.35;;
76298;SDS011;65236;42.332;23.550;2022-12-22T08:44:31;301.97;;;282.23;;
76298;SDS011;65236;42.332;23.550;2022-12-22T08:46:57;295.63;;;276.23;;
76298;SDS011;65236;42.332;23.550;2022-12-22T08:49:23;288.85;;;270.08;;
76298;SDS011;65236;42.332;23.550;2022-12-22T08:51:50;280.63;;;262.40;;
76298;SDS011;65236;42.332;23.550;2022-12-22T08:54:15;311.85;;;289.85;;
76298;SDS011;65236;42.332;23.550;2022-12-22T08:56:41;236.13;;;220.88;;
76298;SDS011;65236;42.332;23.550;2022-12-22T08:59:07;244.67;;;229.67;;
76298;SDS011;65236;42.332;23.550;2022-12-22T09:01:34;297.27;;;277.73;;
76298;SDS011;65236;42.332;23.550;2022-12-22T09:04:01;193.45;;;182.15;;
76298;SDS011;65236;42.332;23.550;2022-12-22T09:06:27;277.13;;;259.60;;
76298;SDS011;65236;42.332;23.550;2022-12-22T09:08:57;159.53;;;150.40;;
76298;SDS011;65236;42.332;23.550;2022-12-22T09:11:25;159.13;;;149.80;;
76298;SDS011;65236;42.332;23.550;2022-12-22T09:13:52;87.80;;;82.93;;
76298;SDS011;65236;42.332;23.550;2022-12-22T09:16:19;117.90;;;111.28;;
76298;SDS011;65236;42.332;23.550;2022-12-22T09:18:46;151.40;;;142.67;;
76298;SDS011;65236;42.332;23.550;2022-12-22T09:21:12;83.85;;;78.57;;
76298;SDS011;65236;42.332;23.550;2022-12-22T09:23:38;200.43;;;187.70;;
76298;SDS011;65236;42.332;23.550;2022-12-22T09:26:07;205.52;;;192.65;;
76298;SDS011;65236;42.332;23.550;2022-12-22T09:28:34;210.23;;;197.33;;
76298;SDS011;65236;42.332;23.550;2022-12-22T09:31:00;158.13;;;148.80;;
76298;SDS011;65236;42.332;23.550;2022-12-22T09:33:25;23.10;;;21.60;;
76298;SDS011;65236;42.332;23.550;2022-12-22T09:35:51;12.80;;;12.00;;
76298;SDS011;65236;42.332;23.550;2022-12-22T09:38:16;14.63;;;13.70;;
76298;SDS011;65236;42.332;23.550;2022-12-22T09:40:42;14.90;;;14.00;;
76298;SDS011;65236;42.332;23.550;2022-12-22T09:43:08;15.70;;;14.50;;
76298;SDS011;65236;42.332;23.550;2022-12-22T09:45:40;194.52;;;182.77;;
76298;SDS011;65236;42.332;23.550;2022-12-22T09:48:07;95.20;;;89.87;;
76298;SDS011;65236;42.332;23.550;2022-12-22T09:50:36;137.77;;;129.88;;
76298;SDS011;65236;42.332;23.550;2022-12-22T09:53:04;115.60;;;108.13;;
76298;SDS011;65236;42.332;23.550;2022-12-22T09:58:00;173.47;;;162.50;;
76298;SDS011;65236;42.332;23.550;2022-12-22T10:00:26;231.57;;;218.18;;
76298;SDS011;65236;42.332;23.550;2022-12-22T10:06:19;123.40;;;116.70;;
76298;SDS011;65236;42.332;23.550;2022-12-22T10:08:48;129.35;;;122.65;;
76298;SDS011;65236;42.332;23.550;2022-12-22T10:11:15;113.33;;;107.37;;
76298;SDS011;65236;42.332;23.550;2022-12-22T10:13:42;99.43;;;94.07;;
76298;SDS011;65236;42.332;23.550;2022-12-22T10:16:41;131.60;;;124.03;;
76298;SDS011;65236;42.332;23.550;2022-12-22T10:19:05;260.48;;;245.27;;
76298;SDS011;65236;42.332;23.550;2022-12-22T10:21:32;91.57;;;86.47;;
76298;SDS011;65236;42.332;23.550;2022-12-22T10:23:58;65.75;;;62.17;;
76298;SDS011;65236;42.332;23.550;2022-12-22T10:26:31;85.40;;;80.70;;
76298;SDS011;65236;42.332;23.550;2022-12-22T10:28:59;207.10;;;195.57;;
76298;SDS011;65236;42.332;23.550;2022-12-22T10:31:31;587.17;;;538.60;;
76298;SDS011;65236;42.332;23.550;2022-12-22T10:34:11;557.00;;;510.30;;
76298;SDS011;65236;42.332;23.550;2022-12-22T10:36:39;680.07;;;623.43;;
76298;SDS011;65236;42.332;23.550;2022-12-22T10:39:10;737.97;;;677.33;;
76298;SDS011;65236;42.332;23.550;2022-12-22T10:41:45;771.40;;;708.20;;
76298;SDS011;65236;42.332;23.550;2022-12-22T10:46:45;880.78;;;808.22;;
76298;SDS011;65236;42.332;23.550;2022-12-22T10:49:15;970.53;;;889.90;;
76298;SDS011;65236;42.332;23.550;2022-12-22T10:51:45;729.85;;;668.40;;
76298;SDS011;65236;42.332;23.550;2022-12-22T10:54:37;344.02;;;317.65;;
76298;SDS011;65236;42.332;23.550;2022-12-22T10:59:48;249.40;;;234.23;;
76298;SDS011;65236;42.332;23.550;2022-12-22T11:04:53;193.07;;;182.55;;
76298;SDS011;65236;42.332;23.550;2022-12-22T11:07:25;366.67;;;342.80;;
76298;SDS011;65236;42.332;23.550;2022-12-22T11:09:54;505.13;;;466.15;;
76298;SDS011;65236;42.332;23.550;2022-12-22T11:31:03;697.42;;;641.97;;
76298;SDS011;65236;42.332;23.550;2022-12-22T11:36:18;796.72;;;732.30;;
76298;SDS011;65236;42.332;23.550;2022-12-22T11:38:57;850.70;;;783.05;;
76298;SDS011;65236;42.332;23.550;2022-12-22T11:41:37;1007.00;;;925.07;;
76298;SDS011;65236;42.332;23.550;2022-12-22T11:47:46;1075.93;;;981.93;;
76298;SDS011;65236;42.332;23.550;2022-12-22T12:20:41;142.30;;;134.35;;
76298;SDS011;65236;42.332;23.550;2022-12-22T12:28:27;188.60;;;178.00;;
76298;SDS011;65236;42.332;23.550;2022-12-22T12:31:18;163.20;;;152.38;;
76298;SDS011;65236;42.332;23.550;2022-12-22T12:33:55;197.60;;;185.43;;
76298;SDS011;65236;42.332;23.550;2022-12-22T12:44:17;211.95;;;195.68;;
76298;SDS011;65236;42.332;23.550;2022-12-22T12:47:34;115.13;;;107.45;;
76298;SDS011;65236;42.332;23.550;2022-12-22T12:52:16;302.13;;;281.30;;
76298;SDS011;65236;42.332;23.550;2022-12-22T12:54:44;284.53;;;265.60;;
76298;SDS011;65236;42.332;23.550;2022-12-22T12:59:52;178.60;;;168.20;;
76298;SDS011;65236;42.332;23.550;2022-12-22T13:10:31;277.20;;;259.17;;
76298;SDS011;65236;42.332;23.550;2022-12-22T13:12:58;210.90;;;198.43;;
76298;SDS011;65236;42.332;23.550;2022-12-22T13:15:31;162.93;;;152.93;;
76298;SDS011;65236;42.332;23.550;2022-12-22T13:17:58;78.65;;;73.78;;
76298;SDS011;65236;42.332;23.550;2022-12-22T13:20:26;78.85;;;74.57;;
76298;SDS011;65236;42.332;23.550;2022-12-22T13:22:58;216.52;;;202.82;;
76298;SDS011;65236;42.332;23.550;2022-12-22T13:28:02;447.13;;;412.40;;
76298;SDS011;65236;42.332;23.550;2022-12-22T13:30:28;390.55;;;361.05;;
76298;SDS011;65236;42.332;23.550;2022-12-22T13:32:54;466.75;;;430.85;;
76298;SDS011;65236;42.332;23.550;2022-12-22T13:35:23;425.10;;;391.13;;
76298;SDS011;65236;42.332;23.550;2022-12-22T13:37:51;439.63;;;404.73;;
76298;SDS011;65236;42.332;23.550;2022-12-22T13:40:24;460.02;;;423.33;;
76298;SDS011;65236;42.332;23.550;2022-12-22T13:47:53;182.90;;;171.77;;
76298;SDS011;65236;42.332;23.550;2022-12-22T13:50:21;229.23;;;215.07;;
76298;SDS011;65236;42.332;23.550;2022-12-22T13:52:54;435.83;;;402.95;;
76298;SDS011;65236;42.332;23.550;2022-12-22T13:55:23;375.08;;;347.48;;
76298;SDS011;65236;42.332;23.550;2022-12-22T13:57:51;231.55;;;217.40;;
76298;SDS011;65236;42.332;23.550;2022-12-22T14:00:19;258.50;;;242.45;;
76298;SDS011;65236;42.332;23.550;2022-12-22T14:02:46;502.80;;;463.90;;
76298;SDS011;65236;42.332;23.550;2022-12-22T14:05:12;294.75;;;275.33;;
76298;SDS011;65236;42.332;23.550;2022-12-22T14:07:39;260.67;;;244.18;;
76298;SDS011;65236;42.332;23.550;2022-12-22T14:10:54;309.50;;;288.67;;
76298;SDS011;65236;42.332;23.550;2022-12-22T14:13:16;305.63;;;285.02;;
76298;SDS011;65236;42.332;23.550;2022-12-22T14:15:44;223.25;;;209.88;;
76298;SDS011;65236;42.332;23.550;2022-12-22T14:18:14;369.08;;;341.65;;
76298;SDS011;65236;42.332;23.550;2022-12-22T14:20:42;357.13;;;330.63;;
76298;SDS011;65236;42.332;23.550;2022-12-22T14:25:48;204.57;;;191.88;;
76298;SDS011;65236;42.332;23.550;2022-12-22T14:31:07;186.80;;;175.80;;
76298;SDS011;65236;42.332;23.550;2022-12-22T14:33:36;325.17;;;302.70;;
76298;SDS011;65236;42.332;23.550;2022-12-22T14:38:54;346.10;;;321.65;;
76298;SDS011;65236;42.332;23.550;2022-12-22T14:41:22;105.00;;;99.05;;
76298;SDS011;65236;42.332;23.550;2022-12-22T14:44:11;134.10;;;126.43;;
76298;SDS011;65236;42.332;23.550;2022-12-22T14:47:03;249.52;;;232.77;;
76298;SDS011;65236;42.332;23.550;2022-12-22T14:49:53;204.57;;;192.43;;
76298;SDS011;65236;42.332;23.550;2022-12-22T14:55:22;273.45;;;256.63;;
76298;SDS011;65236;42.332;23.550;2022-12-22T15:01:15;334.45;;;311.30;;
76298;SDS011;65236;42.332;23.550;2022-12-22T15:03:37;315.15;;;294.75;;
76298;SDS011;65236;42.332;23.550;2022-12-22T15:08:48;317.83;;;297.13;;
76298;SDS011;65236;42.332;23.550;2022-12-22T15:11:17;336.50;;;314.37;;
76298;SDS011;65236;42.332;23.550;2022-12-22T15:13:46;434.00;;;402.42;;
76298;SDS011;65236;42.332;23.550;2022-12-22T15:16:17;451.23;;;419.08;;
76298;SDS011;65236;42.332;23.550;2022-12-22T15:18:44;340.42;;;316.80;;
76298;SDS011;65236;42.332;23.550;2022-12-22T15:21:11;399.58;;;371.42;;
76298;SDS011;65236;42.332;23.550;2022-12-22T15:23:38;418.53;;;389.67;;
76298;SDS011;65236;42.332;23.550;2022-12-22T15:26:04;471.70;;;438.80;;
76298;SDS011;65236;42.332;23.550;2022-12-22T15:28:30;426.02;;;396.83;;
76298;SDS011;65236;42.332;23.550;2022-12-22T15:30:57;446.90;;;415.97;;
76298;SDS011;65236;42.332;23.550;2022-12-22T15:33:23;461.42;;;429.38;;
76298;SDS011;65236;42.332;23.550;2022-12-22T15:35:49;425.92;;;396.95;;
76298;SDS011;65236;42.332;23.550;2022-12-22T15:38:16;414.93;;;386.73;;
76298;SDS011;65236;42.332;23.550;2022-12-22T15:40:45;290.20;;;272.92;;
76298;SDS011;65236;42.332;23.550;2022-12-22T15:43:11;303.05;;;284.20;;
76298;SDS011;65236;42.332;23.550;2022-12-22T15:45:38;469.57;;;436.93;;
76298;SDS011;65236;42.332;23.550;2022-12-22T15:48:05;435.58;;;405.20;;
76298;SDS011;65236;42.332;23.550;2022-12-22T15:50:35;559.10;;;519.55;;
76298;SDS011;65236;42.332;23.550;2022-12-22T15:53:04;489.70;;;455.80;;
76298;SDS011;65236;42.332;23.550;2022-12-22T15:55:33;571.85;;;531.92;;
76298;SDS011;65236;42.332;23.550;2022-12-22T15:58:03;525.43;;;489.50;;
76298;SDS011;65236;42.332;23.550;2022-12-22T16:00:28;496.57;;;462.67;;
76298;SDS011;65236;42.332;23.550;2022-12-22T16:02:53;424.20;;;396.13;;
76298;SDS011;65236;42.332;23.550;2022-12-22T16:05:19;411.67;;;384.13;;
76298;SDS011;65236;42.332;23.550;2022-12-22T16:07:44;345.40;;;324.13;;
76298;SDS011;65236;42.332;23.550;2022-12-22T16:10:17;478.00;;;446.03;;
76298;SDS011;65236;42.332;23.550;2022-12-22T16:12:48;509.65;;;475.17;;
76298;SDS011;65236;42.332;23.550;2022-12-22T16:15:20;522.22;;;487.00;;
76298;SDS011;65236;42.332;23.550;2022-12-22T16:17:46;487.33;;;454.67;;
76298;SDS011;65236;42.332;23.550;2022-12-22T16:20:12;411.67;;;385.13;;
76298;SDS011;65236;42.332;23.550;2022-12-22T16:22:37;526.45;;;490.80;;
76298;SDS011;65236;42.332;23.550;2022-12-22T16:25:04;422.87;;;394.80;;
76298;SDS011;65236;42.332;23.550;2022-12-22T16:27:35;390.67;;;365.17;;
76298;SDS011;65236;42.332;23.550;2022-12-22T16:30:01;344.05;;;323.00;;
76298;SDS011;65236;42.332;23.550;2022-12-22T16:32:28;322.83;;;303.87;;